Time;durP1;ratioP1;P1;durP2;ratioP2;P2;SDS_P1;SDS_P2;PMS_P1;PMS_P2;Temp;Humidity;BMP_temperature;BMP_pressure;BME280_temperature;BME280_humidity;BME280_pressure;Samples;Min_cycle;Max_cycle;Signal;HPM_P1;HPM_P2
2023/06/30 00:01:33;;;;;;;1.00;1.00;;;16.70;99.90;;;;;;5127548;27;20551;-88
2023/06/30 00:03:58;;;;;;;1.00;1.00;;;16.70;99.90;;;;;;5147511;27;20041;-87
2023/06/30 00:06:24;;;;;;;0.95;0.95;;;16.70;99.90;;;;;;5146497;27;20046;-88
2023/06/30 00:08:50;;;;;;;1.00;1.00;;;16.70;99.90;;;;;;5131387;27;20042;-88
2023/06/30 00:11:17;;;;;;;0.93;0.93;;;16.70;99.90;;;;;;5129976;27;20103;-87
2023/06/30 00:13:45;;;;;;;0.90;0.90;;;16.60;99.90;;;;;;5128032;27;20042;-87
2023/06/30 00:16:11;;;;;;;0.40;0.40;;;16.60;99.90;;;;;;5129022;27;20038;-89
2023/06/30 00:18:37;;;;;;;0.90;0.90;;;16.60;99.90;;;;;;5148342;27;20064;-88
2023/06/30 00:21:03;;;;;;;0.90;0.90;;;16.60;99.90;;;;;;5134455;27;20038;-87
2023/06/30 00:23:28;;;;;;;0.80;0.80;;;16.50;99.90;;;;;;5148021;27;20050;-89
2023/06/30 00:25:54;;;;;;;0.82;0.82;;;16.50;99.90;;;;;;5148354;27;20117;-84
2023/06/30 00:28:20;;;;;;;0.80;0.80;;;16.60;99.90;;;;;;5127499;27;20098;-88
2023/06/30 00:30:46;;;;;;;0.80;0.80;;;16.50;99.90;;;;;;5144220;27;20046;-86
2023/06/30 00:33:13;;;;;;;0.80;0.80;;;16.50;99.90;;;;;;5145914;27;20046;-87
2023/06/30 00:35:39;;;;;;;0.80;0.80;;;16.50;99.90;;;;;;5151379;27;20046;-89
2023/06/30 00:38:04;;;;;;;0.90;0.90;;;16.40;99.90;;;;;;5135653;27;20033;-86
2023/06/30 00:40:30;;;;;;;0.80;0.80;;;16.50;99.90;;;;;;5129309;27;20042;-89
2023/06/30 00:42:56;;;;;;;0.77;0.77;;;16.50;99.90;;;;;;5143214;27;20034;-85
2023/06/30 00:45:22;;;;;;;0.80;0.80;;;16.40;99.90;;;;;;5142895;27;20062;-84
2023/06/30 00:47:48;;;;;;;0.80;0.80;;;16.40;99.90;;;;;;5146467;27;20483;-87
2023/06/30 00:50:14;;;;;;;0.75;0.75;;;16.40;99.90;;;;;;5146542;27;20100;-89
2023/06/30 00:52:43;;;;;;;0.93;0.93;;;16.30;99.90;;;;;;5135375;27;20511;-86
2023/06/30 00:55:10;;;;;;;0.73;0.73;;;16.30;99.90;;;;;;5135211;27;20045;-88
2023/06/30 00:57:35;;;;;;;0.80;0.80;;;16.20;99.90;;;;;;5149816;27;20056;-87
2023/06/30 01:00:05;;;;;;;0.75;0.75;;;16.20;99.90;;;;;;5134529;27;20034;-87
2023/06/30 01:02:34;;;;;;;0.80;0.80;;;16.10;99.90;;;;;;5148688;27;20038;-88
2023/06/30 01:05:06;;;;;;;0.70;0.70;;;16.10;99.90;;;;;;5131799;27;20403;-88
2023/06/30 01:07:32;;;;;;;0.68;0.68;;;16.00;99.90;;;;;;5145982;27;20853;-87
2023/06/30 01:10:03;;;;;;;0.65;0.65;;;16.00;99.90;;;;;;5146637;27;20041;-87
2023/06/30 01:12:30;;;;;;;0.70;0.70;;;15.90;99.90;;;;;;5146968;27;20054;-87
2023/06/30 01:14:56;;;;;;;0.70;0.70;;;15.90;99.90;;;;;;5154946;27;20041;-86
2023/06/30 01:17:24;;;;;;;2.50;1.45;;;15.80;99.90;;;;;;5139610;27;20484;-87
2023/06/30 01:19:53;;;;;;;0.80;0.80;;;15.70;99.90;;;;;;5143198;27;20060;-88
2023/06/30 01:22:31;;;;;;;0.80;0.80;;;15.70;99.90;;;;;;5148508;27;20045;-86
2023/06/30 01:25:05;;;;;;;0.80;0.80;;;15.70;99.90;;;;;;5145545;27;20062;-86
2023/06/30 01:27:31;;;;;;;0.88;0.88;;;15.60;99.90;;;;;;5159152;27;20054;-87
2023/06/30 01:29:57;;;;;;;0.90;0.90;;;15.60;99.90;;;;;;5149474;27;20157;-86
2023/06/30 01:32:23;;;;;;;0.80;0.80;;;15.50;99.90;;;;;;5146080;27;20057;-86
2023/06/30 01:34:49;;;;;;;0.80;0.80;;;15.50;99.90;;;;;;5145404;27;20038;-87
2023/06/30 01:37:15;;;;;;;0.85;0.85;;;15.50;99.90;;;;;;5134115;27;20053;-85
2023/06/30 01:39:41;;;;;;;0.80;0.80;;;15.40;99.90;;;;;;5146901;27;20504;-87
2023/06/30 01:42:07;;;;;;;0.90;0.90;;;15.50;99.90;;;;;;5155276;27;20070;-86
2023/06/30 01:44:35;;;;;;;0.70;0.70;;;15.40;99.90;;;;;;5149640;27;20042;-86
2023/06/30 01:47:02;;;;;;;0.80;0.80;;;15.30;99.90;;;;;;5148733;27;20046;-87
2023/06/30 01:49:28;;;;;;;0.80;0.80;;;15.30;99.90;;;;;;5123566;27;20490;-87
2023/06/30 01:51:54;;;;;;;0.90;0.90;;;15.30;99.90;;;;;;5145374;27;20046;-86
2023/06/30 01:54:20;;;;;;;0.80;0.80;;;15.30;99.90;;;;;;5144628;27;20053;-87
2023/06/30 01:56:49;;;;;;;0.80;0.80;;;15.20;99.90;;;;;;5145449;27;20077;-86
2023/06/30 01:59:15;;;;;;;0.70;0.70;;;15.10;99.90;;;;;;5151393;27;20046;-85
2023/06/30 02:01:41;;;;;;;0.70;0.70;;;15.10;99.90;;;;;;5126702;27;20089;-86
2023/06/30 02:04:06;;;;;;;0.70;0.70;;;15.00;99.90;;;;;;5144393;27;20070;-86
2023/06/30 02:06:33;;;;;;;0.70;0.70;;;14.90;99.90;;;;;;5147456;27;20046;-86
2023/06/30 02:08:58;;;;;;;0.73;0.73;;;14.90;99.90;;;;;;5128667;27;20543;-87
2023/06/30 02:11:24;;;;;;;0.70;0.70;;;14.80;99.90;;;;;;5145787;27;20056;-86
2023/06/30 02:13:49;;;;;;;0.70;0.70;;;14.90;99.90;;;;;;5149471;27;20058;-87
2023/06/30 02:16:15;;;;;;;0.70;0.70;;;14.70;99.90;;;;;;5149539;27;20079;-87
2023/06/30 02:18:41;;;;;;;0.80;0.80;;;14.70;99.90;;;;;;5145940;27;20066;-87
2023/06/30 02:21:07;;;;;;;0.70;0.70;;;14.70;99.90;;;;;;5134250;27;20045;-87
2023/06/30 02:23:32;;;;;;;0.70;0.70;;;14.80;99.90;;;;;;5150131;27;20046;-87
2023/06/30 02:25:58;;;;;;;0.82;0.82;;;14.60;99.90;;;;;;5149760;27;20098;-86
2023/06/30 02:28:24;;;;;;;0.82;0.82;;;14.50;99.90;;;;;;5144141;27;20542;-87
2023/06/30 02:30:49;;;;;;;0.88;0.88;;;14.50;99.90;;;;;;5128911;27;20141;-87
2023/06/30 02:33:16;;;;;;;0.80;0.80;;;14.50;99.90;;;;;;5150483;27;20071;-87
2023/06/30 02:35:42;;;;;;;0.80;0.80;;;14.30;99.90;;;;;;5129544;27;20126;-88
2023/06/30 02:38:07;;;;;;;0.80;0.80;;;14.20;99.90;;;;;;5153809;27;20081;-87
2023/06/30 02:40:33;;;;;;;0.90;0.90;;;14.20;99.90;;;;;;5147690;27;20066;-86
2023/06/30 02:42:59;;;;;;;0.80;0.80;;;14.30;99.90;;;;;;5146114;27;20094;-88
2023/06/30 02:45:25;;;;;;;0.80;0.80;;;14.20;99.90;;;;;;5145535;27;20080;-87
2023/06/30 02:47:51;;;;;;;0.80;0.80;;;14.20;99.90;;;;;;5149182;27;20484;-87
2023/06/30 02:50:17;;;;;;;0.80;0.80;;;14.10;99.90;;;;;;5149956;27;20072;-87
2023/06/30 02:52:43;;;;;;;0.80;0.80;;;14.10;99.90;;;;;;5132887;27;20141;-88
2023/06/30 02:55:09;;;;;;;0.80;0.80;;;14.00;99.90;;;;;;5137239;27;20038;-89
2023/06/30 02:57:35;;;;;;;0.80;0.80;;;14.00;99.90;;;;;;5135949;27;20049;-89
2023/06/30 03:00:00;;;;;;;0.77;0.77;;;13.90;99.90;;;;;;5136107;27;20050;-87
2023/06/30 03:02:26;;;;;;;0.75;0.75;;;13.90;99.90;;;;;;5151457;27;20077;-87
2023/06/30 03:04:55;;;;;;;0.80;0.80;;;13.90;99.90;;;;;;5154746;27;20129;-88
2023/06/30 03:07:21;;;;;;;0.80;0.80;;;13.90;99.90;;;;;;5156074;27;20038;-87
2023/06/30 03:09:47;;;;;;;0.73;0.73;;;13.80;99.90;;;;;;5137016;27;20046;-87
2023/06/30 03:12:13;;;;;;;0.80;0.80;;;13.80;99.90;;;;;;5149826;27;20046;-87
2023/06/30 03:14:39;;;;;;;0.80;0.80;;;13.80;99.90;;;;;;5148266;27;20657;-86
2023/06/30 03:17:05;;;;;;;0.80;0.80;;;13.70;99.90;;;;;;5137789;27;20560;-89
2023/06/30 03:19:30;;;;;;;0.80;0.80;;;13.60;99.90;;;;;;5137370;27;20042;-89
2023/06/30 03:21:56;;;;;;;0.80;0.80;;;13.50;99.90;;;;;;5149920;27;20073;-89
2023/06/30 03:24:22;;;;;;;0.80;0.80;;;13.50;99.90;;;;;;5153547;27;20124;-86
2023/06/30 03:26:48;;;;;;;0.80;0.80;;;13.40;99.90;;;;;;5146074;27;20054;-87
2023/06/30 03:29:13;;;;;;;0.70;0.70;;;13.10;99.90;;;;;;5137868;27;20057;-86
2023/06/30 03:31:39;;;;;;;0.80;0.80;;;13.10;99.90;;;;;;5148892;27;20041;-86
2023/06/30 03:34:04;;;;;;;0.88;0.88;;;13.00;99.90;;;;;;5157171;27;20045;-86
2023/06/30 03:36:30;;;;;;;0.80;0.80;;;13.00;99.90;;;;;;5134496;27;20090;-87
2023/06/30 03:38:56;;;;;;;0.70;0.70;;;12.90;99.90;;;;;;5130368;27;20578;-87
2023/06/30 03:41:21;;;;;;;0.70;0.70;;;12.80;99.90;;;;;;5150363;27;20046;-87
2023/06/30 03:43:47;;;;;;;0.70;0.70;;;12.80;99.90;;;;;;5130809;27;20049;-87
2023/06/30 03:46:15;;;;;;;0.70;0.70;;;12.70;99.90;;;;;;5130240;27;20115;-86
2023/06/30 03:48:40;;;;;;;0.80;0.80;;;12.80;99.90;;;;;;5148934;27;20046;-87
2023/06/30 03:51:06;;;;;;;0.70;0.70;;;12.70;99.90;;;;;;5146484;27;20095;-87
2023/06/30 03:53:32;;;;;;;0.70;0.70;;;12.80;99.90;;;;;;5151557;27;20046;-86
2023/06/30 03:55:58;;;;;;;0.70;0.70;;;12.80;99.90;;;;;;5151567;27;20077;-87
2023/06/30 03:58:24;;;;;;;0.80;0.80;;;12.70;99.90;;;;;;5135055;27;20133;-87
2023/06/30 04:00:50;;;;;;;0.80;0.80;;;12.60;99.90;;;;;;5145985;27;20149;-88
2023/06/30 04:03:15;;;;;;;0.70;0.70;;;12.70;99.90;;;;;;5149722;27;20075;-86
2023/06/30 04:05:41;;;;;;;0.70;0.70;;;12.60;99.90;;;;;;5146426;27;20049;-87
2023/06/30 04:08:07;;;;;;;0.77;0.77;;;12.60;99.90;;;;;;5132058;27;20042;-86
2023/06/30 04:10:33;;;;;;;0.80;0.80;;;12.70;99.90;;;;;;5152700;27;20056;-86
2023/06/30 04:12:59;;;;;;;0.80;0.80;;;12.70;99.90;;;;;;5153893;27;20038;-87
2023/06/30 04:15:24;;;;;;;0.80;0.80;;;12.70;99.90;;;;;;5128990;27;20045;-86
2023/06/30 04:17:50;;;;;;;0.80;0.80;;;12.80;99.90;;;;;;5147937;27;20073;-87
2023/06/30 04:20:16;;;;;;;0.80;0.80;;;12.80;99.90;;;;;;5152516;27;20091;-87
2023/06/30 04:22:41;;;;;;;0.80;0.80;;;12.80;99.90;;;;;;5152173;27;20046;-87
2023/06/30 04:25:08;;;;;;;0.80;0.80;;;12.90;99.90;;;;;;5151519;27;20481;-86
2023/06/30 04:27:34;;;;;;;0.80;0.80;;;13.10;99.90;;;;;;5143630;27;20069;-87
2023/06/30 04:30:00;;;;;;;0.70;0.70;;;13.20;99.90;;;;;;5148748;27;20507;-87
2023/06/30 04:32:26;;;;;;;0.70;0.70;;;13.20;99.90;;;;;;5147377;27;20049;-87
2023/06/30 04:34:51;;;;;;;0.70;0.70;;;13.30;99.90;;;;;;5147136;27;20035;-86
2023/06/30 04:37:17;;;;;;;0.70;0.70;;;13.30;99.90;;;;;;5150053;27;20043;-86
2023/06/30 04:39:43;;;;;;;0.70;0.70;;;13.40;99.90;;;;;;5148983;27;20058;-87
2023/06/30 04:42:08;;;;;;;0.70;0.70;;;13.50;99.90;;;;;;5147854;27;20075;-87
2023/06/30 04:44:36;;;;;;;0.70;0.70;;;13.70;99.90;;;;;;5123921;27;20466;-87
2023/06/30 04:47:02;;;;;;;0.70;0.70;;;14.50;99.90;;;;;;5153558;27;20696;-89
2023/06/30 04:49:28;;;;;;;0.68;0.68;;;15.10;99.90;;;;;;5126543;27;20069;-87
2023/06/30 04:51:53;;;;;;;0.60;0.60;;;15.50;99.90;;;;;;5144182;27;20054;-87
2023/06/30 04:54:21;;;;;;;0.60;0.60;;;16.70;99.90;;;;;;5151408;27;20050;-87
2023/06/30 04:56:47;;;;;;;0.60;0.60;;;17.30;99.90;;;;;;5142554;27;20559;-87
2023/06/30 04:59:12;;;;;;;0.60;0.60;;;17.50;99.90;;;;;;5151408;27;20065;-84
2023/06/30 05:01:38;;;;;;;0.60;0.60;;;18.00;99.90;;;;;;5151652;27;20414;-84
2023/06/30 05:04:04;;;;;;;0.63;0.63;;;18.20;99.90;;;;;;5142631;27;20438;-82
2023/06/30 05:06:29;;;;;;;0.70;0.70;;;18.60;99.90;;;;;;5174637;27;20048;-85
2023/06/30 05:08:55;;;;;;;0.70;0.70;;;18.70;99.90;;;;;;5145002;27;20038;-87
2023/06/30 05:11:21;;;;;;;0.60;0.60;;;18.90;99.90;;;;;;5140723;27;20054;-88
2023/06/30 05:13:46;;;;;;;0.60;0.60;;;19.10;99.90;;;;;;5148416;27;20053;-87
2023/06/30 05:16:12;;;;;;;0.60;0.60;;;19.70;99.90;;;;;;5134729;27;20037;-88
2023/06/30 05:18:38;;;;;;;0.60;0.60;;;20.20;99.90;;;;;;5131566;27;20120;-88
2023/06/30 05:21:05;;;;;;;0.60;0.60;;;20.60;99.90;;;;;;5141368;27;20038;-87
2023/06/30 05:23:31;;;;;;;0.70;0.70;;;21.50;99.90;;;;;;5142809;27;20512;-87
2023/06/30 05:25:58;;;;;;;0.60;0.60;;;21.90;99.90;;;;;;5146549;27;20042;-87
2023/06/30 05:28:24;;;;;;;0.60;0.60;;;22.50;99.90;;;;;;5126079;27;20054;-87
2023/06/30 05:30:50;;;;;;;0.60;0.60;;;22.70;99.90;;;;;;5146354;27;20077;-88
2023/06/30 05:33:15;;;;;;;0.65;0.65;;;23.70;99.90;;;;;;5150719;27;20046;-89
2023/06/30 05:35:41;;;;;;;0.68;0.68;;;24.30;99.90;;;;;;5150460;27;20679;-89
2023/06/30 05:38:07;;;;;;;0.60;0.60;;;24.60;99.90;;;;;;5133045;27;20038;-88
2023/06/30 05:40:32;;;;;;;0.68;0.68;;;24.90;99.90;;;;;;5148107;27;20053;-88
2023/06/30 05:42:58;;;;;;;0.60;0.60;;;24.90;99.90;;;;;;5143290;27;20035;-87
2023/06/30 05:45:25;;;;;;;0.60;0.60;;;25.30;99.90;;;;;;5141579;27;20462;-89
2023/06/30 05:47:51;;;;;;;0.65;0.65;;;25.30;99.90;;;;;;5136829;27;20038;-87
2023/06/30 05:50:17;;;;;;;0.70;0.70;;;24.10;99.90;;;;;;5143643;27;20034;-88
2023/06/30 05:52:43;;;;;;;0.60;0.60;;;22.10;99.90;;;;;;5142757;27;20061;-88
2023/06/30 05:55:08;;;;;;;0.60;0.60;;;21.60;99.90;;;;;;5144230;27;20052;-89
2023/06/30 05:57:34;;;;;;;0.60;0.60;;;21.30;99.90;;;;;;5131865;27;20766;-88
2023/06/30 06:00:00;;;;;;;0.70;0.70;;;21.30;99.90;;;;;;5131267;27;20536;-90
2023/06/30 06:02:26;;;;;;;0.60;0.60;;;20.90;99.90;;;;;;5148775;27;20057;-90
2023/06/30 06:04:51;;;;;;;0.60;0.60;;;21.10;99.90;;;;;;5139456;27;20109;-84
2023/06/30 06:07:17;;;;;;;0.60;0.60;;;20.50;99.90;;;;;;5144705;27;20034;-89
2023/06/30 06:09:43;;;;;;;0.60;0.60;;;20.80;99.90;;;;;;5142634;27;20065;-90
2023/06/30 06:12:09;;;;;;;0.60;0.60;;;20.60;99.90;;;;;;5139464;27;20088;-89
2023/06/30 06:14:35;;;;;;;0.52;0.52;;;20.20;99.90;;;;;;5143352;27;20150;-88
2023/06/30 06:17:00;;;;;;;0.50;0.50;;;20.20;99.90;;;;;;5127322;27;20486;-87
2023/06/30 06:19:26;;;;;;;0.60;0.60;;;20.80;99.90;;;;;;5144928;27;20039;-88
2023/06/30 06:21:52;;;;;;;0.70;0.70;;;20.50;99.90;;;;;;5148015;27;20740;-88
2023/06/30 06:24:17;;;;;;;0.70;0.70;;;20.40;99.90;;;;;;5145099;27;20398;-89
2023/06/30 06:26:43;;;;;;;0.70;0.70;;;20.00;99.90;;;;;;5149636;27;20072;-87
2023/06/30 06:29:09;;;;;;;0.70;0.70;;;19.80;99.90;;;;;;5151353;27;20076;-88
2023/06/30 06:31:35;;;;;;;0.60;0.60;;;19.90;99.90;;;;;;5134123;27;20500;-86
2023/06/30 06:34:01;;;;;;;0.65;0.65;;;19.60;99.90;;;;;;5146050;27;20042;-93
2023/06/30 06:36:26;;;;;;;0.60;0.60;;;19.60;99.90;;;;;;5138592;27;20128;-89
2023/06/30 06:38:52;;;;;;;0.70;0.70;;;19.90;99.90;;;;;;5151094;27;20125;-89
2023/06/30 06:41:18;;;;;;;0.60;0.60;;;20.20;99.90;;;;;;5149989;27;20075;-87
2023/06/30 06:43:43;;;;;;;0.60;0.60;;;20.50;99.90;;;;;;5147373;27;20405;-89
2023/06/30 06:46:09;;;;;;;0.65;0.65;;;20.80;99.90;;;;;;5144889;27;20580;-91
2023/06/30 06:48:35;;;;;;;0.60;0.60;;;21.00;99.90;;;;;;5129114;27;20055;-87
2023/06/30 06:51:02;;;;;;;0.60;0.60;;;21.20;99.90;;;;;;5124584;27;20043;-87
2023/06/30 06:53:29;;;;;;;0.70;0.70;;;21.30;99.90;;;;;;5150894;27;20089;-91
2023/06/30 06:55:55;;;;;;;0.60;0.60;;;20.70;99.90;;;;;;5131878;27;20038;-87
2023/06/30 06:58:22;;;;;;;0.55;0.55;;;20.80;99.90;;;;;;5153359;27;20046;-86
2023/06/30 07:00:50;;;;;;;0.50;0.50;;;20.70;99.90;;;;;;5145823;27;20111;-88
2023/06/30 07:03:16;;;;;;;0.50;0.50;;;20.50;99.90;;;;;;5155496;27;20057;-83
2023/06/30 07:05:44;;;;;;;0.50;0.50;;;20.90;99.90;;;;;;5160851;27;20530;-87
2023/06/30 07:08:11;;;;;;;0.60;0.60;;;21.00;99.90;;;;;;5158283;27;20064;-86
2023/06/30 07:10:37;;;;;;;0.57;0.57;;;20.50;99.90;;;;;;5156817;27;20046;-87
2023/06/30 07:13:03;;;;;;;0.52;0.52;;;20.60;99.90;;;;;;5158333;27;20109;-87
2023/06/30 07:15:29;;;;;;;0.50;0.50;;;21.00;99.90;;;;;;5162329;27;20057;-89
2023/06/30 07:17:58;;;;;;;0.45;0.45;;;20.60;99.90;;;;;;5149533;27;20538;-88
2023/06/30 07:20:24;;;;;;;0.50;0.50;;;19.90;99.90;;;;;;5136111;27;20437;-86
2023/06/30 07:22:54;;;;;;;0.50;0.50;;;20.00;99.90;;;;;;5155137;27;20671;-90
2023/06/30 07:25:21;;;;;;;0.50;0.50;;;20.10;99.90;;;;;;5151731;27;20142;-88
2023/06/30 07:27:52;;;;;;;0.50;0.50;;;20.30;99.90;;;;;;5137371;27;20105;-87
2023/06/30 07:30:21;;;;;;;0.50;0.50;;;20.50;99.90;;;;;;5135298;27;20071;-87
2023/06/30 07:32:49;;;;;;;0.50;0.50;;;21.00;99.90;;;;;;5131240;27;20046;-89
2023/06/30 07:35:16;;;;;;;0.50;0.50;;;20.50;99.90;;;;;;5132112;27;20435;-89
2023/06/30 07:37:42;;;;;;;0.50;0.50;;;20.90;99.90;;;;;;5134263;27;20048;-88
2023/06/30 07:40:08;;;;;;;0.40;0.40;;;21.00;99.90;;;;;;5159453;27;20406;-89
2023/06/30 07:42:33;;;;;;;0.50;0.50;;;21.10;99.90;;;;;;5155689;27;20046;-90
2023/06/30 07:44:59;;;;;;;0.50;0.50;;;21.10;99.90;;;;;;5153818;27;20065;-86
2023/06/30 07:47:25;;;;;;;1.00;1.00;;;20.90;99.90;;;;;;5155541;27;20779;-90
2023/06/30 07:50:01;;;;;;;1.10;1.10;;;20.70;99.90;;;;;;5148590;27;20034;-88
2023/06/30 07:52:27;;;;;;;1.10;1.10;;;20.30;99.90;;;;;;5134529;27;20041;-88
2023/06/30 07:54:55;;;;;;;1.10;1.10;;;20.30;99.90;;;;;;5151548;27;20039;-89
2023/06/30 07:57:24;;;;;;;1.10;1.10;;;20.60;99.90;;;;;;5153925;27;20069;-90
2023/06/30 07:59:50;;;;;;;1.08;1.08;;;20.60;99.90;;;;;;5132959;27;20133;-89
2023/06/30 08:02:17;;;;;;;1.10;1.10;;;20.80;99.90;;;;;;5131218;27;20173;-87
2023/06/30 08:04:43;;;;;;;1.20;1.20;;;21.10;99.90;;;;;;5125160;27;20051;-89
2023/06/30 08:07:09;;;;;;;1.30;1.30;;;21.60;99.90;;;;;;5148149;27;20042;-88
2023/06/30 08:09:35;;;;;;;1.20;1.20;;;21.70;99.90;;;;;;5128352;27;20038;-89
2023/06/30 08:12:04;;;;;;;1.27;1.27;;;21.60;99.90;;;;;;5126762;27;20043;-88
2023/06/30 08:14:29;;;;;;;1.33;1.33;;;21.80;99.90;;;;;;5146064;27;20468;-89
2023/06/30 08:16:55;;;;;;;1.50;1.40;;;22.20;99.90;;;;;;5134339;27;20034;-89
2023/06/30 08:19:21;;;;;;;1.20;1.20;;;22.50;99.90;;;;;;5145497;27;20053;-89
2023/06/30 08:21:47;;;;;;;1.20;1.20;;;22.30;99.90;;;;;;5153976;27;20038;-87
2023/06/30 08:24:12;;;;;;;1.20;1.20;;;21.20;99.90;;;;;;5134319;27;20099;-91
2023/06/30 08:26:38;;;;;;;1.20;1.20;;;21.80;99.90;;;;;;5137417;27;20057;-88
2023/06/30 08:29:04;;;;;;;1.25;1.25;;;21.90;99.90;;;;;;5135941;27;20540;-88
2023/06/30 08:31:30;;;;;;;1.50;1.40;;;22.20;99.90;;;;;;5152861;27;20067;-88
2023/06/30 08:33:56;;;;;;;1.60;1.50;;;22.50;99.90;;;;;;5154671;27;20050;-87
2023/06/30 08:36:23;;;;;;;1.50;1.40;;;22.80;99.90;;;;;;5156228;27;20125;-90
2023/06/30 08:38:48;;;;;;;1.55;1.45;;;22.60;99.90;;;;;;5134078;27;20053;-89
2023/06/30 08:41:15;;;;;;;2.13;2.03;;;22.80;99.90;;;;;;5131969;27;20046;-89
2023/06/30 08:43:41;;;;;;;2.00;1.90;;;23.20;99.90;;;;;;5141700;27;20053;-86
2023/06/30 08:46:10;;;;;;;2.20;2.10;;;23.00;99.90;;;;;;5147566;27;20054;-87
2023/06/30 08:48:36;;;;;;;1.98;1.88;;;23.20;99.90;;;;;;5151342;27;20079;-89
2023/06/30 08:51:03;;;;;;;1.88;1.77;;;23.60;99.90;;;;;;5138241;27;20049;-90
2023/06/30 08:53:33;;;;;;;1.20;1.20;;;23.40;99.90;;;;;;5137863;27;20455;-88
2023/06/30 08:55:59;;;;;;;1.20;1.20;;;23.00;99.90;;;;;;5137887;27;20551;-86
2023/06/30 08:58:28;;;;;;;0.70;0.70;;;23.00;99.90;;;;;;5149873;27;20070;-89
2023/06/30 09:00:55;;;;;;;0.80;0.80;;;22.40;99.90;;;;;;5144454;27;20126;-89
2023/06/30 09:03:22;;;;;;;0.70;0.70;;;22.00;99.90;;;;;;5135558;27;20077;-89
2023/06/30 09:05:52;;;;;;;0.80;0.80;;;22.60;99.90;;;;;;5141048;27;20031;-88
2023/06/30 09:08:21;;;;;;;0.90;0.90;;;22.50;99.90;;;;;;5129547;27;20126;-90
2023/06/30 09:10:48;;;;;;;0.70;0.70;;;22.70;99.90;;;;;;5156903;27;20046;-90
2023/06/30 09:13:18;;;;;;;0.60;0.60;;;22.20;99.90;;;;;;5149979;27;20038;-90
2023/06/30 09:15:45;;;;;;;0.60;0.60;;;21.70;99.90;;;;;;5146878;27;20563;-90
2023/06/30 09:18:11;;;;;;;0.90;0.90;;;22.10;99.90;;;;;;5131794;27;20045;-88
2023/06/30 09:20:38;;;;;;;1.00;1.00;;;23.30;99.90;;;;;;5156461;27;20110;-88
2023/06/30 09:23:06;;;;;;;0.80;0.80;;;23.50;99.90;;;;;;5145282;27;20091;-87
2023/06/30 09:25:32;;;;;;;0.60;0.60;;;23.60;99.90;;;;;;5134872;27;20049;-88
2023/06/30 09:28:00;;;;;;;0.45;0.45;;;22.70;99.90;;;;;;5156664;27;20559;-90
2023/06/30 09:30:33;;;;;;;0.70;0.70;;;23.00;99.90;;;;;;5137291;27;20050;-89
2023/06/30 09:32:59;;;;;;;0.60;0.60;;;23.80;99.90;;;;;;5130464;27;20137;-93
2023/06/30 09:35:24;;;;;;;0.50;0.50;;;24.00;99.90;;;;;;5152999;27;20125;-89
2023/06/30 09:37:53;;;;;;;0.50;0.50;;;24.10;99.90;;;;;;5164853;27;20053;-93
2023/06/30 09:40:24;;;;;;;0.60;0.60;;;23.50;99.90;;;;;;5137240;27;20045;-89
2023/06/30 09:42:53;;;;;;;0.30;0.30;;;22.90;99.90;;;;;;5151530;27;20098;-90
2023/06/30 09:45:19;;;;;;;0.70;0.70;;;23.40;99.90;;;;;;5138328;27;20042;-93
2023/06/30 09:47:54;;;;;;;0.30;0.30;;;23.50;99.90;;;;;;5133621;27;20026;-92
2023/06/30 09:50:27;;;;;;;0.77;0.77;;;24.10;99.90;;;;;;5131419;27;20047;-92
2023/06/30 09:52:53;;;;;;;0.30;0.30;;;23.80;99.90;;;;;;5129501;27;20074;-91
2023/06/30 09:55:19;;;;;;;0.55;0.55;;;24.30;99.90;;;;;;5148379;27;20503;-89
2023/06/30 09:57:46;;;;;;;0.30;0.30;;;23.10;99.90;;;;;;5148312;27;20045;-91
2023/06/30 10:00:16;;;;;;;0.73;0.73;;;24.00;99.90;;;;;;5133868;27;20084;-91
2023/06/30 10:02:43;;;;;;;0.77;0.77;;;24.60;99.90;;;;;;5136008;27;20057;-90
2023/06/30 10:05:09;;;;;;;0.30;0.30;;;25.40;99.90;;;;;;5154051;27;20524;-87
2023/06/30 10:07:36;;;;;;;0.30;0.30;;;25.30;99.90;;;;;;5147148;27;20043;-91
2023/06/30 10:10:03;;;;;;;0.30;0.30;;;24.80;99.90;;;;;;5159738;27;20074;-92
2023/06/30 10:12:35;;;;;;;0.30;0.30;;;24.90;99.90;;;;;;5137665;27;20509;-93
2023/06/30 10:15:02;;;;;;;0.30;0.30;;;24.20;99.90;;;;;;5145125;27;20045;-91
2023/06/30 10:17:29;;;;;;;0.30;0.30;;;23.90;99.90;;;;;;5137569;27;20049;-94
2023/06/30 10:19:56;;;;;;;0.30;0.30;;;24.70;99.90;;;;;;5128620;27;20072;-92
2023/06/30 10:22:21;;;;;;;0.40;0.40;;;24.70;99.90;;;;;;5128203;27;20051;-89
2023/06/30 10:24:49;;;;;;;0.30;0.30;;;24.80;99.90;;;;;;5149734;27;20522;-90
2023/06/30 10:27:18;;;;;;;0.30;0.30;;;24.90;99.90;;;;;;5154277;27;20049;-92
2023/06/30 10:29:46;;;;;;;0.30;0.30;;;25.20;99.90;;;;;;5132460;27;20038;-91
2023/06/30 10:32:12;;;;;;;0.30;0.30;;;25.20;99.90;;;;;;5161150;27;20121;-94
2023/06/30 10:34:38;;;;;;;0.30;0.30;;;25.90;99.90;;;;;;5135011;27;20039;-93
2023/06/30 10:37:05;;;;;;;0.30;0.30;;;26.00;99.90;;;;;;5135472;27;20404;-90
2023/06/30 10:39:31;;;;;;;0.30;0.30;;;26.20;99.90;;;;;;5153799;27;20113;-90
2023/06/30 10:41:59;;;;;;;0.30;0.30;;;26.30;99.90;;;;;;5130327;27;20146;-92
2023/06/30 10:44:39;;;;;;;0.25;0.25;;;25.60;99.80;;;;;;5135262;27;20147;-90
2023/06/30 10:47:05;;;;;;;0.30;0.30;;;25.70;99.90;;;;;;5130732;27;20054;-88
2023/06/30 10:49:35;;;;;;;0.30;0.30;;;26.20;99.90;;;;;;5142916;27;20046;-90
2023/06/30 10:52:06;;;;;;;0.50;0.35;;;26.60;99.80;;;;;;5159025;27;20047;-93
2023/06/30 10:54:41;;;;;;;0.30;0.30;;;26.50;99.80;;;;;;5147052;27;20070;-89
2023/06/30 10:57:18;;;;;;;0.30;0.30;;;26.10;98.80;;;;;;5129660;27;20041;-94
2023/06/30 11:00:02;;;;;;;0.30;0.30;;;25.10;98.60;;;;;;5134647;27;20049;-93
2023/06/30 11:02:31;;;;;;;0.30;0.30;;;24.50;99.20;;;;;;5151632;27;20054;-90
2023/06/30 11:05:19;;;;;;;0.30;0.30;;;25.40;99.90;;;;;;5149302;27;20042;-91
2023/06/30 11:07:52;;;;;;;0.30;0.30;;;25.80;99.80;;;;;;5135701;27;20062;-88
2023/06/30 11:10:45;;;;;;;0.30;0.30;;;26.30;98.70;;;;;;5128711;27;20070;-89
2023/06/30 11:13:11;;;;;;;0.30;0.30;;;25.50;99.60;;;;;;5153942;27;20098;-91
2023/06/30 11:15:40;;;;;;;0.30;0.30;;;25.90;99.30;;;;;;5154064;27;20046;-90
2023/06/30 11:18:20;;;;;;;0.30;0.30;;;25.20;97.00;;;;;;5136527;27;20046;-93
2023/06/30 11:20:59;;;;;;;0.30;0.30;;;24.40;96.70;;;;;;5155049;27;20056;-91
2023/06/30 11:23:28;;;;;;;0.30;0.30;;;24.30;97.90;;;;;;5158792;27;20077;-92
2023/06/30 11:25:57;;;;;;;0.30;0.30;;;25.00;98.30;;;;;;5138351;27;20043;-90
2023/06/30 11:28:26;;;;;;;0.30;0.30;;;25.80;98.50;;;;;;5146235;27;20070;-88
2023/06/30 11:30:52;;;;;;;0.30;0.30;;;25.60;97.90;;;;;;5150097;27;20038;-89
2023/06/30 11:33:18;;;;;;;0.30;0.30;;;24.60;97.60;;;;;;5150371;27;20046;-90
2023/06/30 11:35:52;;;;;;;0.30;0.30;;;24.00;98.70;;;;;;5159687;27;20098;-88
2023/06/30 11:38:18;;;;;;;0.30;0.30;;;23.80;99.50;;;;;;5147596;27;20041;-90
2023/06/30 11:40:49;;;;;;;0.30;0.30;;;23.60;99.70;;;;;;5155603;27;20046;-91
2023/06/30 11:43:16;;;;;;;0.75;0.30;;;23.50;99.30;;;;;;5149362;27;20103;-88
2023/06/30 11:45:43;;;;;;;0.30;0.30;;;23.40;99.90;;;;;;5153684;27;20069;-89
2023/06/30 11:48:11;;;;;;;0.30;0.30;;;23.10;99.70;;;;;;5133102;27;20041;-90
2023/06/30 11:50:37;;;;;;;0.30;0.30;;;23.10;99.90;;;;;;5137647;27;20661;-90
2023/06/30 11:53:03;;;;;;;0.60;0.60;;;23.10;99.40;;;;;;5149498;27;20154;-91
2023/06/30 11:55:29;;;;;;;0.50;0.50;;;23.60;99.90;;;;;;5136523;27;20030;-89
2023/06/30 11:57:55;;;;;;;0.47;0.47;;;24.70;99.20;;;;;;5146140;27;20130;-89
2023/06/30 12:00:23;;;;;;;0.30;0.30;;;25.20;98.40;;;;;;5149719;27;20042;-95
2023/06/30 12:02:50;;;;;;;0.30;0.30;;;25.70;98.70;;;;;;5152616;27;20046;-89
2023/06/30 12:05:18;;;;;;;0.30;0.30;;;25.10;97.00;;;;;;5155070;27;20050;-89
2023/06/30 12:07:46;;;;;;;0.30;0.30;;;24.60;97.80;;;;;;5135504;27;20042;-90
2023/06/30 12:10:13;;;;;;;0.30;0.30;;;25.10;98.10;;;;;;5135173;27;20049;-90
2023/06/30 12:12:39;;;;;;;0.30;0.30;;;25.20;98.10;;;;;;5146288;27;20071;-88
2023/06/30 12:15:08;;;;;;;0.30;0.30;;;25.70;96.60;;;;;;5137082;27;20057;-92
2023/06/30 12:17:42;;;;;;;0.30;0.30;;;25.90;97.20;;;;;;5125106;27;20031;-90
2023/06/30 12:20:08;;;;;;;;;;;26.40;97.40;;;;;;5146612;27;20042;-89
2023/06/30 12:22:41;;;;;;;0.30;0.30;;;26.00;95.90;;;;;;5148624;27;19963;-89
2023/06/30 12:25:14;;;;;;;0.30;0.30;;;25.70;96.50;;;;;;5142215;27;20038;-91
2023/06/30 12:27:43;;;;;;;0.30;0.30;;;26.20;96.50;;;;;;5147953;27;20050;-91
2023/06/30 12:30:16;;;;;;;0.30;0.30;;;25.80;94.80;;;;;;5151301;27;20038;-90
2023/06/30 12:32:43;;;;;;;0.30;0.30;;;25.30;94.80;;;;;;5128139;27;20050;-88
2023/06/30 12:35:10;;;;;;;0.30;0.30;;;24.70;95.20;;;;;;5134412;27;20073;-94
2023/06/30 12:37:35;;;;;;;0.30;0.30;;;24.50;96.10;;;;;;5136836;27;20133;-91
2023/06/30 12:40:03;;;;;;;0.30;0.30;;;24.20;97.80;;;;;;5157298;27;20129;-91
2023/06/30 12:42:31;;;;;;;0.30;0.30;;;24.30;96.80;;;;;;5134091;27;20097;-90
2023/06/30 12:44:57;;;;;;;0.30;0.30;;;25.40;97.10;;;;;;5141601;27;20050;-89
2023/06/30 12:47:23;;;;;;;0.30;0.30;;;26.00;96.20;;;;;;5130696;27;20790;-90